createdAt,value
2024-03-07T00:00:16.968Z,7.30
2024-03-07T00:10:18.840Z,7.70
2024-03-07T00:20:21.704Z,6.60
2024-03-07T00:30:23.581Z,5.50
2024-03-07T00:40:25.447Z,6.00
2024-03-07T00:50:27.349Z,6.10
2024-03-07T01:00:29.512Z,6.50
2024-03-07T01:10:31.449Z,6.00
2024-03-07T01:20:33.400Z,5.70
2024-03-07T01:30:35.162Z,5.60
2024-03-07T01:40:36.906Z,5.50
2024-03-07T01:50:41.512Z,6.30
2024-03-07T02:00:45.147Z,6.30
2024-03-07T02:10:47.466Z,5.60
2024-03-07T02:20:49.805Z,4.20
2024-03-07T02:30:51.625Z,4.00
2024-03-07T02:40:53.497Z,5.30
2024-03-07T02:50:55.309Z,5.20
2024-03-07T03:01:01.128Z,5.80
2024-03-07T03:11:02.981Z,6.30
2024-03-07T03:21:04.946Z,5.40
2024-03-07T03:31:06.790Z,5.90
2024-03-07T03:41:08.586Z,6.80
2024-03-07T03:51:10.867Z,6.50
2024-03-07T04:01:16.028Z,4.60
2024-03-07T04:11:18.262Z,5.00
2024-03-07T04:21:20.410Z,5.00
2024-03-07T04:41:24.707Z,6.90
2024-03-07T04:51:26.736Z,6.40
2024-03-07T05:11:33.880Z,5.70
2024-03-07T05:21:39.472Z,8.60
2024-03-07T05:31:52.097Z,6.80
2024-03-07T05:41:55.741Z,6.00
2024-03-07T05:51:59.399Z,7.00
2024-03-07T06:02:01.192Z,5.60
2024-03-07T06:12:10.148Z,6.20
2024-03-07T06:22:18.564Z,6.60
2024-03-07T06:32:20.471Z,7.50
2024-03-07T06:42:23.100Z,9.40
2024-03-07T06:52:24.933Z,7.60
2024-03-07T07:02:28.888Z,8.10
2024-03-07T07:12:30.815Z,8.60
2024-03-07T07:22:35.859Z,7.70
2024-03-07T07:32:38.031Z,9.30
2024-03-07T07:42:40.898Z,7.90
2024-03-07T07:52:51.495Z,8.00
2024-03-07T08:03:02.698Z,9.10
2024-03-07T08:13:11.480Z,7.40
2024-03-07T08:23:14.311Z,7.50
2024-03-07T08:33:16.289Z,7.40
2024-03-07T08:43:18.104Z,7.00
2024-03-07T08:53:20.052Z,5.50
2024-03-07T09:03:23.032Z,7.40
2024-03-07T09:13:25.515Z,7.20
2024-03-07T09:23:27.272Z,8.60
2024-03-07T09:33:29.500Z,7.00
2024-03-07T09:43:34.230Z,7.20
2024-03-07T09:53:38.319Z,6.00
2024-03-07T10:03:46.086Z,5.20
2024-03-07T10:13:50.410Z,5.10
2024-03-07T10:24:06.750Z,5.40
2024-03-07T10:34:09.321Z,4.30
2024-03-07T10:44:17.073Z,4.80
2024-03-07T10:54:35.679Z,4.10
2024-03-07T11:04:38.122Z,4.30
2024-03-07T11:14:41.649Z,4.70
2024-03-07T11:24:44.193Z,4.10
2024-03-07T11:34:49.273Z,5.30
2024-03-07T11:44:52.667Z,3.70
2024-03-07T11:54:54.809Z,4.10
2024-03-07T12:04:56.649Z,4.20
2024-03-07T12:14:58.767Z,4.00
2024-03-07T12:25:10.052Z,4.60
2024-03-07T12:35:13.767Z,5.20
2024-03-07T12:45:21.345Z,5.10
2024-03-07T12:55:23.232Z,4.30
2024-03-07T13:05:25.808Z,4.40
2024-03-07T13:15:27.581Z,4.30
2024-03-07T13:25:34.280Z,3.80
2024-03-07T13:35:37.305Z,3.70
2024-03-07T13:45:44.974Z,4.30
2024-03-07T13:55:55.544Z,3.40
2024-03-07T14:06:00.309Z,5.20
2024-03-07T14:16:24.974Z,4.10
2024-03-07T14:27:04.962Z,2.70
2024-03-07T14:37:24.967Z,5.00
2024-03-07T14:47:27.137Z,4.10
2024-03-07T14:57:28.957Z,4.00
2024-03-07T15:07:30.689Z,5.40
2024-03-07T15:17:32.500Z,5.10
2024-03-07T15:27:40.698Z,4.10
2024-03-07T15:37:42.687Z,3.80
2024-03-07T15:47:50.355Z,4.40
2024-03-07T15:57:54.772Z,3.90
2024-03-07T16:07:57.831Z,5.30
2024-03-07T16:18:00.730Z,4.60
2024-03-07T16:28:02.999Z,4.20
2024-03-07T16:38:05.443Z,6.60
2024-03-07T16:48:13.727Z,5.40
2024-03-07T16:58:17.370Z,5.60
2024-03-07T17:08:22.042Z,7.20
2024-03-07T17:18:26.085Z,7.40
2024-03-07T17:28:30.310Z,8.60
2024-03-07T17:38:34.421Z,7.50
2024-03-07T17:48:37.737Z,9.20
2024-03-07T17:58:39.868Z,10.90
2024-03-07T18:08:46.014Z,6.70
2024-03-07T18:18:55.726Z,5.10
2024-03-07T18:28:57.539Z,3.70
2024-03-07T18:38:59.349Z,2.80
2024-03-07T18:49:01.181Z,2.80
2024-03-07T18:59:09.180Z,4.30
2024-03-07T19:09:14.008Z,7.10
2024-03-07T19:19:18.317Z,9.20
2024-03-07T19:29:22.279Z,8.10
2024-03-07T19:39:24.841Z,7.10
2024-03-07T19:49:29.260Z,7.40
2024-03-07T19:59:31.057Z,5.00
2024-03-07T20:09:32.761Z,5.80
2024-03-07T20:29:36.823Z,3.60
2024-03-07T20:49:47.304Z,3.70
2024-03-07T21:09:50.776Z,4.70
2024-03-07T21:19:53.011Z,6.50
2024-03-07T21:29:54.902Z,10.10
2024-03-07T21:39:57.672Z,13.20
2024-03-07T21:49:59.759Z,16.00
2024-03-07T22:00:01.619Z,15.90
2024-03-07T22:10:12.981Z,14.60
2024-03-07T22:20:20.137Z,15.30
2024-03-07T22:30:23.282Z,9.90
2024-03-07T22:40:28.974Z,10.10
2024-03-07T22:50:31.879Z,8.20
2024-03-07T23:00:34.009Z,7.80
2024-03-07T23:10:36.119Z,7.30
2024-03-07T23:20:38.720Z,9.00
2024-03-07T23:30:40.597Z,8.10
